sensor_id;sensor_type;location;lat;lon;timestamp;P1;durP1;ratioP1;P2;durP2;ratioP2
15198;SDS011;7700;48.654;9.070;2024-01-15T00:02:14;14.90;;;9.30;;
15198;SDS011;7700;48.654;9.070;2024-01-15T00:04:40;12.43;;;7.50;;
15198;SDS011;7700;48.654;9.070;2024-01-15T00:07:06;14.30;;;9.37;;
15198;SDS011;7700;48.654;9.070;2024-01-15T00:09:32;13.60;;;7.60;;
15198;SDS011;7700;48.654;9.070;2024-01-15T00:11:58;14.50;;;8.57;;
15198;SDS011;7700;48.654;9.070;2024-01-15T00:14:24;12.47;;;8.17;;
15198;SDS011;7700;48.654;9.070;2024-01-15T00:16:50;17.00;;;9.10;;
15198;SDS011;7700;48.654;9.070;2024-01-15T00:19:16;14.80;;;9.27;;
15198;SDS011;7700;48.654;9.070;2024-01-15T00:21:43;13.83;;;8.10;;
15198;SDS011;7700;48.654;9.070;2024-01-15T00:24:09;15.07;;;8.90;;
15198;SDS011;7700;48.654;9.070;2024-01-15T00:26:34;16.33;;;9.73;;
15198;SDS011;7700;48.654;9.070;2024-01-15T00:29:00;16.70;;;9.17;;
15198;SDS011;7700;48.654;9.070;2024-01-15T00:31:25;14.93;;;9.60;;
15198;SDS011;7700;48.654;9.070;2024-01-15T00:33:51;18.43;;;9.30;;
15198;SDS011;7700;48.654;9.070;2024-01-15T00:36:17;17.33;;;9.03;;
15198;SDS011;7700;48.654;9.070;2024-01-15T00:38:43;14.40;;;8.83;;
15198;SDS011;7700;48.654;9.070;2024-01-15T00:41:09;16.90;;;9.67;;
15198;SDS011;7700;48.654;9.070;2024-01-15T00:43:34;16.57;;;9.00;;
15198;SDS011;7700;48.654;9.070;2024-01-15T00:46:03;15.83;;;9.13;;
15198;SDS011;7700;48.654;9.070;2024-01-15T00:48:29;15.60;;;9.80;;
15198;SDS011;7700;48.654;9.070;2024-01-15T00:50:54;17.47;;;9.97;;
15198;SDS011;7700;48.654;9.070;2024-01-15T00:53:20;13.10;;;8.57;;
15198;SDS011;7700;48.654;9.070;2024-01-15T00:55:47;15.43;;;10.07;;
15198;SDS011;7700;48.654;9.070;2024-01-15T00:58:15;13.30;;;7.90;;
15198;SDS011;7700;48.654;9.070;2024-01-15T01:00:41;15.57;;;9.33;;
15198;SDS011;7700;48.654;9.070;2024-01-15T01:03:08;13.63;;;8.20;;
15198;SDS011;7700;48.654;9.070;2024-01-15T01:05:36;12.40;;;8.40;;
15198;SDS011;7700;48.654;9.070;2024-01-15T01:08:02;15.60;;;8.87;;
15198;SDS011;7700;48.654;9.070;2024-01-15T01:10:28;16.50;;;9.50;;
15198;SDS011;7700;48.654;9.070;2024-01-15T01:12:54;14.20;;;9.03;;
15198;SDS011;7700;48.654;9.070;2024-01-15T01:15:19;14.97;;;8.67;;
15198;SDS011;7700;48.654;9.070;2024-01-15T01:17:45;15.00;;;8.83;;
15198;SDS011;7700;48.654;9.070;2024-01-15T01:20:11;15.70;;;9.23;;
15198;SDS011;7700;48.654;9.070;2024-01-15T01:22:37;13.20;;;8.87;;
15198;SDS011;7700;48.654;9.070;2024-01-15T01:25:04;15.37;;;9.23;;
15198;SDS011;7700;48.654;9.070;2024-01-15T01:27:30;16.17;;;9.23;;
15198;SDS011;7700;48.654;9.070;2024-01-15T01:29:55;15.00;;;9.70;;
15198;SDS011;7700;48.654;9.070;2024-01-15T01:32:21;13.07;;;8.33;;
15198;SDS011;7700;48.654;9.070;2024-01-15T01:34:46;13.00;;;7.60;;
15198;SDS011;7700;48.654;9.070;2024-01-15T01:37:12;12.73;;;8.40;;
15198;SDS011;7700;48.654;9.070;2024-01-15T01:39:38;12.33;;;8.33;;
15198;SDS011;7700;48.654;9.070;2024-01-15T01:42:04;13.47;;;8.07;;
15198;SDS011;7700;48.654;9.070;2024-01-15T01:44:30;12.80;;;7.90;;
15198;SDS011;7700;48.654;9.070;2024-01-15T01:46:56;14.90;;;8.77;;
15198;SDS011;7700;48.654;9.070;2024-01-15T01:49:23;14.90;;;8.53;;
15198;SDS011;7700;48.654;9.070;2024-01-15T01:51:50;15.63;;;7.37;;
15198;SDS011;7700;48.654;9.070;2024-01-15T01:54:16;14.77;;;8.40;;
15198;SDS011;7700;48.654;9.070;2024-01-15T01:56:42;12.97;;;8.40;;
15198;SDS011;7700;48.654;9.070;2024-01-15T01:59:08;14.27;;;7.70;;
15198;SDS011;7700;48.654;9.070;2024-01-15T02:01:35;14.60;;;8.00;;
15198;SDS011;7700;48.654;9.070;2024-01-15T02:04:01;13.07;;;8.37;;
15198;SDS011;7700;48.654;9.070;2024-01-15T02:06:28;13.20;;;7.90;;
15198;SDS011;7700;48.654;9.070;2024-01-15T02:08:53;15.10;;;8.03;;
15198;SDS011;7700;48.654;9.070;2024-01-15T02:11:19;12.57;;;7.77;;
15198;SDS011;7700;48.654;9.070;2024-01-15T02:13:45;13.47;;;8.20;;
15198;SDS011;7700;48.654;9.070;2024-01-15T02:16:11;15.90;;;7.87;;
15198;SDS011;7700;48.654;9.070;2024-01-15T02:18:40;13.37;;;7.30;;
15198;SDS011;7700;48.654;9.070;2024-01-15T02:21:09;12.37;;;7.53;;
15198;SDS011;7700;48.654;9.070;2024-01-15T02:23:35;14.53;;;8.13;;
15198;SDS011;7700;48.654;9.070;2024-01-15T02:26:02;12.53;;;8.20;;
15198;SDS011;7700;48.654;9.070;2024-01-15T02:28:28;13.57;;;7.93;;
15198;SDS011;7700;48.654;9.070;2024-01-15T02:30:54;13.13;;;8.03;;
15198;SDS011;7700;48.654;9.070;2024-01-15T02:33:19;14.17;;;8.97;;
15198;SDS011;7700;48.654;9.070;2024-01-15T02:35:45;10.87;;;8.07;;
15198;SDS011;7700;48.654;9.070;2024-01-15T02:38:15;15.30;;;8.57;;
15198;SDS011;7700;48.654;9.070;2024-01-15T02:40:41;13.87;;;8.53;;
15198;SDS011;7700;48.654;9.070;2024-01-15T02:43:08;12.80;;;7.90;;
15198;SDS011;7700;48.654;9.070;2024-01-15T02:45:33;13.60;;;7.73;;
15198;SDS011;7700;48.654;9.070;2024-01-15T02:47:59;12.20;;;8.10;;
15198;SDS011;7700;48.654;9.070;2024-01-15T02:50:24;14.27;;;8.53;;
15198;SDS011;7700;48.654;9.070;2024-01-15T02:52:50;14.17;;;8.30;;
15198;SDS011;7700;48.654;9.070;2024-01-15T02:55:15;13.50;;;8.40;;
15198;SDS011;7700;48.654;9.070;2024-01-15T02:57:41;11.90;;;7.70;;
15198;SDS011;7700;48.654;9.070;2024-01-15T03:00:07;15.17;;;8.53;;
15198;SDS011;7700;48.654;9.070;2024-01-15T03:02:33;12.83;;;8.10;;
15198;SDS011;7700;48.654;9.070;2024-01-15T03:05:04;12.60;;;8.47;;
15198;SDS011;7700;48.654;9.070;2024-01-15T03:07:30;15.57;;;9.80;;
15198;SDS011;7700;48.654;9.070;2024-01-15T03:09:56;12.53;;;8.03;;
15198;SDS011;7700;48.654;9.070;2024-01-15T03:12:21;14.33;;;8.37;;
15198;SDS011;7700;48.654;9.070;2024-01-15T03:14:47;12.87;;;7.93;;
15198;SDS011;7700;48.654;9.070;2024-01-15T03:17:12;13.03;;;9.07;;
15198;SDS011;7700;48.654;9.070;2024-01-15T03:19:38;12.93;;;7.67;;
15198;SDS011;7700;48.654;9.070;2024-01-15T03:22:04;14.80;;;8.87;;
15198;SDS011;7700;48.654;9.070;2024-01-15T03:24:30;15.90;;;8.43;;
15198;SDS011;7700;48.654;9.070;2024-01-15T03:26:56;13.73;;;8.53;;
15198;SDS011;7700;48.654;9.070;2024-01-15T03:29:22;12.00;;;7.33;;
15198;SDS011;7700;48.654;9.070;2024-01-15T03:31:48;15.77;;;8.43;;
15198;SDS011;7700;48.654;9.070;2024-01-15T03:34:13;13.23;;;8.07;;
15198;SDS011;7700;48.654;9.070;2024-01-15T03:36:39;15.13;;;8.87;;
15198;SDS011;7700;48.654;9.070;2024-01-15T03:39:05;13.37;;;8.60;;
15198;SDS011;7700;48.654;9.070;2024-01-15T03:41:31;16.47;;;9.07;;
15198;SDS011;7700;48.654;9.070;2024-01-15T03:43:56;15.47;;;9.40;;
15198;SDS011;7700;48.654;9.070;2024-01-15T03:46:23;13.13;;;8.80;;
15198;SDS011;7700;48.654;9.070;2024-01-15T03:48:49;11.73;;;8.40;;
15198;SDS011;7700;48.654;9.070;2024-01-15T03:51:15;12.03;;;8.30;;
15198;SDS011;7700;48.654;9.070;2024-01-15T03:53:43;13.80;;;7.97;;
15198;SDS011;7700;48.654;9.070;2024-01-15T03:56:09;12.37;;;8.33;;
15198;SDS011;7700;48.654;9.070;2024-01-15T03:58:35;11.30;;;7.80;;
15198;SDS011;7700;48.654;9.070;2024-01-15T04:01:00;13.57;;;8.30;;
15198;SDS011;7700;48.654;9.070;2024-01-15T04:03:26;12.80;;;8.03;;
15198;SDS011;7700;48.654;9.070;2024-01-15T04:05:51;14.73;;;8.63;;
15198;SDS011;7700;48.654;9.070;2024-01-15T04:08:17;13.37;;;8.57;;
15198;SDS011;7700;48.654;9.070;2024-01-15T04:10:42;16.33;;;9.83;;
15198;SDS011;7700;48.654;9.070;2024-01-15T04:13:08;13.70;;;7.53;;
15198;SDS011;7700;48.654;9.070;2024-01-15T04:15:33;13.97;;;8.23;;
15198;SDS011;7700;48.654;9.070;2024-01-15T04:18:00;14.87;;;9.43;;
15198;SDS011;7700;48.654;9.070;2024-01-15T04:20:26;15.13;;;7.57;;
15198;SDS011;7700;48.654;9.070;2024-01-15T04:22:51;14.27;;;9.03;;
15198;SDS011;7700;48.654;9.070;2024-01-15T04:25:17;14.60;;;9.53;;
15198;SDS011;7700;48.654;9.070;2024-01-15T04:27:42;12.83;;;8.40;;
15198;SDS011;7700;48.654;9.070;2024-01-15T04:30:08;17.23;;;8.80;;
15198;SDS011;7700;48.654;9.070;2024-01-15T04:32:34;16.97;;;8.40;;
15198;SDS011;7700;48.654;9.070;2024-01-15T04:35:00;16.53;;;9.90;;
15198;SDS011;7700;48.654;9.070;2024-01-15T04:37:25;17.73;;;9.87;;
15198;SDS011;7700;48.654;9.070;2024-01-15T04:39:51;15.00;;;9.57;;
15198;SDS011;7700;48.654;9.070;2024-01-15T04:42:19;12.43;;;7.87;;
15198;SDS011;7700;48.654;9.070;2024-01-15T04:44:45;17.33;;;9.50;;
15198;SDS011;7700;48.654;9.070;2024-01-15T04:47:11;16.70;;;9.63;;
15198;SDS011;7700;48.654;9.070;2024-01-15T04:49:36;14.80;;;8.63;;
15198;SDS011;7700;48.654;9.070;2024-01-15T04:52:02;14.73;;;9.63;;
15198;SDS011;7700;48.654;9.070;2024-01-15T04:54:27;14.17;;;8.03;;
15198;SDS011;7700;48.654;9.070;2024-01-15T04:56:53;14.93;;;8.23;;
15198;SDS011;7700;48.654;9.070;2024-01-15T04:59:18;15.67;;;8.60;;
15198;SDS011;7700;48.654;9.070;2024-01-15T05:01:44;13.57;;;7.87;;
15198;SDS011;7700;48.654;9.070;2024-01-15T05:04:09;16.17;;;9.37;;
15198;SDS011;7700;48.654;9.070;2024-01-15T05:06:35;16.00;;;8.97;;
15198;SDS011;7700;48.654;9.070;2024-01-15T05:09:00;10.60;;;8.50;;
15198;SDS011;7700;48.654;9.070;2024-01-15T05:11:26;14.10;;;8.70;;
15198;SDS011;7700;48.654;9.070;2024-01-15T05:13:51;14.87;;;9.63;;
15198;SDS011;7700;48.654;9.070;2024-01-15T05:16:17;15.03;;;9.17;;
15198;SDS011;7700;48.654;9.070;2024-01-15T05:18:42;16.70;;;10.97;;
15198;SDS011;7700;48.654;9.070;2024-01-15T05:21:08;18.00;;;11.07;;
15198;SDS011;7700;48.654;9.070;2024-01-15T05:23:34;18.20;;;9.60;;
15198;SDS011;7700;48.654;9.070;2024-01-15T05:25:59;16.17;;;9.37;;
15198;SDS011;7700;48.654;9.070;2024-01-15T05:28:25;14.37;;;9.77;;
15198;SDS011;7700;48.654;9.070;2024-01-15T05:30:50;16.03;;;9.43;;
15198;SDS011;7700;48.654;9.070;2024-01-15T05:33:17;16.33;;;9.73;;
15198;SDS011;7700;48.654;9.070;2024-01-15T05:35:42;17.67;;;9.67;;
15198;SDS011;7700;48.654;9.070;2024-01-15T05:38:08;16.80;;;9.23;;
15198;SDS011;7700;48.654;9.070;2024-01-15T05:40:33;16.10;;;9.47;;
15198;SDS011;7700;48.654;9.070;2024-01-15T05:42:59;18.03;;;9.80;;
15198;SDS011;7700;48.654;9.070;2024-01-15T05:45:29;17.20;;;9.77;;
15198;SDS011;7700;48.654;9.070;2024-01-15T05:47:55;17.27;;;10.87;;
15198;SDS011;7700;48.654;9.070;2024-01-15T05:50:21;15.77;;;8.90;;
15198;SDS011;7700;48.654;9.070;2024-01-15T05:52:47;14.30;;;8.13;;
15198;SDS011;7700;48.654;9.070;2024-01-15T05:55:13;19.87;;;10.77;;
15198;SDS011;7700;48.654;9.070;2024-01-15T05:57:38;15.67;;;9.23;;
15198;SDS011;7700;48.654;9.070;2024-01-15T06:00:04;18.50;;;9.70;;
15198;SDS011;7700;48.654;9.070;2024-01-15T06:02:30;18.13;;;10.80;;
15198;SDS011;7700;48.654;9.070;2024-01-15T06:04:56;13.30;;;8.13;;
15198;SDS011;7700;48.654;9.070;2024-01-15T06:07:22;15.60;;;9.30;;
15198;SDS011;7700;48.654;9.070;2024-01-15T06:09:48;15.50;;;9.60;;
15198;SDS011;7700;48.654;9.070;2024-01-15T06:12:13;16.17;;;9.97;;
15198;SDS011;7700;48.654;9.070;2024-01-15T06:14:39;15.00;;;9.93;;
15198;SDS011;7700;48.654;9.070;2024-01-15T06:17:06;17.77;;;9.87;;
15198;SDS011;7700;48.654;9.070;2024-01-15T06:19:31;16.67;;;10.73;;
15198;SDS011;7700;48.654;9.070;2024-01-15T06:21:57;14.20;;;11.13;;
15198;SDS011;7700;48.654;9.070;2024-01-15T06:24:22;15.63;;;9.27;;
15198;SDS011;7700;48.654;9.070;2024-01-15T06:26:48;15.17;;;9.73;;
15198;SDS011;7700;48.654;9.070;2024-01-15T06:29:13;15.13;;;9.53;;
15198;SDS011;7700;48.654;9.070;2024-01-15T06:31:39;17.47;;;10.33;;
15198;SDS011;7700;48.654;9.070;2024-01-15T06:34:04;14.17;;;9.57;;
15198;SDS011;7700;48.654;9.070;2024-01-15T06:36:30;12.57;;;9.47;;
15198;SDS011;7700;48.654;9.070;2024-01-15T06:38:55;13.97;;;8.20;;
15198;SDS011;7700;48.654;9.070;2024-01-15T06:41:21;12.47;;;7.77;;
15198;SDS011;7700;48.654;9.070;2024-01-15T06:43:47;11.80;;;7.87;;
15198;SDS011;7700;48.654;9.070;2024-01-15T06:46:13;12.27;;;7.87;;
15198;SDS011;7700;48.654;9.070;2024-01-15T06:48:45;15.00;;;8.27;;
15198;SDS011;7700;48.654;9.070;2024-01-15T06:51:10;14.43;;;8.30;;
15198;SDS011;7700;48.654;9.070;2024-01-15T06:53:36;14.53;;;9.07;;
15198;SDS011;7700;48.654;9.070;2024-01-15T06:56:01;13.67;;;9.17;;
15198;SDS011;7700;48.654;9.070;2024-01-15T06:58:27;14.50;;;9.53;;
15198;SDS011;7700;48.654;9.070;2024-01-15T07:00:52;14.47;;;8.73;;
15198;SDS011;7700;48.654;9.070;2024-01-15T07:03:18;11.23;;;7.13;;
15198;SDS011;7700;48.654;9.070;2024-01-15T07:05:43;14.27;;;8.47;;
15198;SDS011;7700;48.654;9.070;2024-01-15T07:08:09;15.30;;;9.10;;
15198;SDS011;7700;48.654;9.070;2024-01-15T07:10:35;15.37;;;9.03;;
15198;SDS011;7700;48.654;9.070;2024-01-15T07:13:00;13.43;;;8.60;;
15198;SDS011;7700;48.654;9.070;2024-01-15T07:15:27;13.93;;;9.27;;
15198;SDS011;7700;48.654;9.070;2024-01-15T07:17:53;15.00;;;8.87;;
15198;SDS011;7700;48.654;9.070;2024-01-15T07:20:31;10.53;;;7.77;;
15198;SDS011;7700;48.654;9.070;2024-01-15T07:22:57;15.10;;;8.77;;
15198;SDS011;7700;48.654;9.070;2024-01-15T07:25:22;14.20;;;8.20;;
15198;SDS011;7700;48.654;9.070;2024-01-15T07:27:48;10.80;;;7.23;;
15198;SDS011;7700;48.654;9.070;2024-01-15T07:30:13;12.47;;;7.43;;
15198;SDS011;7700;48.654;9.070;2024-01-15T07:32:39;9.93;;;6.63;;
15198;SDS011;7700;48.654;9.070;2024-01-15T07:35:05;13.87;;;8.37;;
15198;SDS011;7700;48.654;9.070;2024-01-15T07:37:31;11.23;;;7.40;;
15198;SDS011;7700;48.654;9.070;2024-01-15T07:39:56;8.83;;;6.20;;
15198;SDS011;7700;48.654;9.070;2024-01-15T07:42:23;12.50;;;7.37;;
15198;SDS011;7700;48.654;9.070;2024-01-15T07:44:48;13.00;;;10.27;;
15198;SDS011;7700;48.654;9.070;2024-01-15T07:47:15;9.03;;;6.23;;
15198;SDS011;7700;48.654;9.070;2024-01-15T07:49:41;13.90;;;8.37;;
15198;SDS011;7700;48.654;9.070;2024-01-15T07:52:07;12.07;;;7.97;;
15198;SDS011;7700;48.654;9.070;2024-01-15T07:54:32;10.40;;;6.47;;
15198;SDS011;7700;48.654;9.070;2024-01-15T07:57:01;11.90;;;7.60;;
15198;SDS011;7700;48.654;9.070;2024-01-15T07:59:28;9.37;;;6.60;;
15198;SDS011;7700;48.654;9.070;2024-01-15T08:01:53;13.57;;;7.17;;
15198;SDS011;7700;48.654;9.070;2024-01-15T08:04:20;11.73;;;8.13;;
15198;SDS011;7700;48.654;9.070;2024-01-15T08:06:47;12.23;;;7.60;;
15198;SDS011;7700;48.654;9.070;2024-01-15T08:09:13;12.83;;;7.43;;
15198;SDS011;7700;48.654;9.070;2024-01-15T08:11:42;12.97;;;8.30;;
15198;SDS011;7700;48.654;9.070;2024-01-15T08:14:08;16.20;;;12.77;;
15198;SDS011;7700;48.654;9.070;2024-01-15T08:16:35;12.23;;;7.40;;
15198;SDS011;7700;48.654;9.070;2024-01-15T08:19:03;12.70;;;6.90;;
15198;SDS011;7700;48.654;9.070;2024-01-15T08:21:30;12.37;;;8.77;;
15198;SDS011;7700;48.654;9.070;2024-01-15T08:23:57;13.23;;;7.77;;
15198;SDS011;7700;48.654;9.070;2024-01-15T08:26:23;10.63;;;7.10;;
15198;SDS011;7700;48.654;9.070;2024-01-15T08:28:48;12.03;;;8.87;;
15198;SDS011;7700;48.654;9.070;2024-01-15T08:31:14;11.57;;;7.03;;
15198;SDS011;7700;48.654;9.070;2024-01-15T08:33:39;8.57;;;6.37;;
15198;SDS011;7700;48.654;9.070;2024-01-15T08:36:05;9.93;;;7.07;;
15198;SDS011;7700;48.654;9.070;2024-01-15T08:38:31;11.67;;;8.23;;
15198;SDS011;7700;48.654;9.070;2024-01-15T08:40:56;7.83;;;6.03;;
15198;SDS011;7700;48.654;9.070;2024-01-15T08:43:24;7.73;;;5.57;;
15198;SDS011;7700;48.654;9.070;2024-01-15T08:45:50;9.17;;;5.57;;
15198;SDS011;7700;48.654;9.070;2024-01-15T08:48:16;9.17;;;5.80;;
15198;SDS011;7700;48.654;9.070;2024-01-15T08:50:41;8.40;;;5.33;;
15198;SDS011;7700;48.654;9.070;2024-01-15T08:53:07;8.43;;;5.47;;
15198;SDS011;7700;48.654;9.070;2024-01-15T08:55:32;7.27;;;5.30;;
15198;SDS011;7700;48.654;9.070;2024-01-15T08:57:58;6.70;;;5.17;;
15198;SDS011;7700;48.654;9.070;2024-01-15T09:00:24;8.17;;;5.60;;
15198;SDS011;7700;48.654;9.070;2024-01-15T09:02:50;7.53;;;5.60;;
15198;SDS011;7700;48.654;9.070;2024-01-15T09:05:15;8.33;;;4.50;;
15198;SDS011;7700;48.654;9.070;2024-01-15T09:07:41;8.30;;;4.33;;
15198;SDS011;7700;48.654;9.070;2024-01-15T09:10:06;7.47;;;4.47;;
15198;SDS011;7700;48.654;9.070;2024-01-15T09:12:32;7.30;;;4.93;;
15198;SDS011;7700;48.654;9.070;2024-01-15T09:14:58;6.33;;;4.20;;
15198;SDS011;7700;48.654;9.070;2024-01-15T09:17:23;6.53;;;4.57;;
15198;SDS011;7700;48.654;9.070;2024-01-15T09:19:49;7.50;;;4.77;;
15198;SDS011;7700;48.654;9.070;2024-01-15T09:22:15;6.70;;;4.30;;
15198;SDS011;7700;48.654;9.070;2024-01-15T09:24:46;4.80;;;3.80;;
15198;SDS011;7700;48.654;9.070;2024-01-15T09:27:12;5.23;;;3.73;;
15198;SDS011;7700;48.654;9.070;2024-01-15T09:29:38;8.90;;;4.90;;
15198;SDS011;7700;48.654;9.070;2024-01-15T09:32:07;6.33;;;4.60;;
15198;SDS011;7700;48.654;9.070;2024-01-15T09:34:33;6.20;;;4.13;;
15198;SDS011;7700;48.654;9.070;2024-01-15T09:36:59;5.80;;;4.03;;
15198;SDS011;7700;48.654;9.070;2024-01-15T09:39:25;6.00;;;4.30;;
15198;SDS011;7700;48.654;9.070;2024-01-15T09:41:51;5.73;;;4.17;;
15198;SDS011;7700;48.654;9.070;2024-01-15T09:44:17;6.27;;;4.10;;
15198;SDS011;7700;48.654;9.070;2024-01-15T09:46:44;6.67;;;4.50;;
15198;SDS011;7700;48.654;9.070;2024-01-15T09:49:10;8.30;;;5.70;;
15198;SDS011;7700;48.654;9.070;2024-01-15T09:51:36;5.80;;;4.57;;
15198;SDS011;7700;48.654;9.070;2024-01-15T09:54:03;5.87;;;4.13;;
15198;SDS011;7700;48.654;9.070;2024-01-15T09:56:29;6.90;;;4.57;;
15198;SDS011;7700;48.654;9.070;2024-01-15T09:58:56;7.03;;;5.60;;
15198;SDS011;7700;48.654;9.070;2024-01-15T10:03:30;6.27;;;4.37;;
15198;SDS011;7700;48.654;9.070;2024-01-15T10:05:57;6.13;;;4.27;;
15198;SDS011;7700;48.654;9.070;2024-01-15T10:08:24;5.57;;;3.93;;
15198;SDS011;7700;48.654;9.070;2024-01-15T10:10:50;5.07;;;3.63;;
15198;SDS011;7700;48.654;9.070;2024-01-15T10:13:16;5.80;;;4.17;;
15198;SDS011;7700;48.654;9.070;2024-01-15T10:15:44;5.50;;;3.93;;
15198;SDS011;7700;48.654;9.070;2024-01-15T10:18:11;13.27;;;8.53;;
15198;SDS011;7700;48.654;9.070;2024-01-15T10:20:37;5.83;;;3.50;;
15198;SDS011;7700;48.654;9.070;2024-01-15T10:23:03;5.77;;;3.73;;
15198;SDS011;7700;48.654;9.070;2024-01-15T10:25:29;6.47;;;3.90;;
15198;SDS011;7700;48.654;9.070;2024-01-15T10:28:02;6.10;;;3.57;;
15198;SDS011;7700;48.654;9.070;2024-01-15T10:30:29;6.40;;;4.17;;
15198;SDS011;7700;48.654;9.070;2024-01-15T10:32:57;4.87;;;3.67;;
15198;SDS011;7700;48.654;9.070;2024-01-15T10:35:26;8.17;;;4.57;;
15198;SDS011;7700;48.654;9.070;2024-01-15T10:37:52;5.13;;;4.13;;
15198;SDS011;7700;48.654;9.070;2024-01-15T10:40:18;6.13;;;4.23;;
15198;SDS011;7700;48.654;9.070;2024-01-15T10:42:44;6.37;;;4.40;;
15198;SDS011;7700;48.654;9.070;2024-01-15T10:45:09;5.43;;;4.10;;
15198;SDS011;7700;48.654;9.070;2024-01-15T10:47:35;5.70;;;4.17;;
15198;SDS011;7700;48.654;9.070;2024-01-15T10:50:01;4.80;;;3.90;;
15198;SDS011;7700;48.654;9.070;2024-01-15T10:52:28;8.10;;;4.53;;
15198;SDS011;7700;48.654;9.070;2024-01-15T10:54:54;5.53;;;3.87;;
15198;SDS011;7700;48.654;9.070;2024-01-15T10:57:20;5.80;;;4.60;;
15198;SDS011;7700;48.654;9.070;2024-01-15T10:59:47;7.20;;;4.83;;
15198;SDS011;7700;48.654;9.070;2024-01-15T11:02:13;5.53;;;3.97;;
15198;SDS011;7700;48.654;9.070;2024-01-15T11:04:39;8.23;;;5.13;;
15198;SDS011;7700;48.654;9.070;2024-01-15T11:07:05;6.90;;;3.87;;
15198;SDS011;7700;48.654;9.070;2024-01-15T11:09:31;6.30;;;4.07;;
15198;SDS011;7700;48.654;9.070;2024-01-15T11:12:06;7.77;;;5.53;;
15198;SDS011;7700;48.654;9.070;2024-01-15T11:17:07;7.37;;;4.30;;
15198;SDS011;7700;48.654;9.070;2024-01-15T11:19:36;4.57;;;4.10;;
15198;SDS011;7700;48.654;9.070;2024-01-15T11:22:05;6.80;;;4.63;;
15198;SDS011;7700;48.654;9.070;2024-01-15T11:24:38;5.33;;;4.00;;
15198;SDS011;7700;48.654;9.070;2024-01-15T11:27:05;7.03;;;4.57;;
15198;SDS011;7700;48.654;9.070;2024-01-15T11:29:33;5.10;;;3.87;;
15198;SDS011;7700;48.654;9.070;2024-01-15T11:32:00;5.87;;;4.60;;
15198;SDS011;7700;48.654;9.070;2024-01-15T11:37:23;7.53;;;4.20;;
15198;SDS011;7700;48.654;9.070;2024-01-15T11:39:53;5.73;;;4.47;;
15198;SDS011;7700;48.654;9.070;2024-01-15T11:42:20;5.03;;;3.73;;
15198;SDS011;7700;48.654;9.070;2024-01-15T11:44:47;5.57;;;3.93;;
15198;SDS011;7700;48.654;9.070;2024-01-15T11:47:13;6.40;;;4.57;;
15198;SDS011;7700;48.654;9.070;2024-01-15T11:52:35;5.90;;;4.13;;
15198;SDS011;7700;48.654;9.070;2024-01-15T11:55:12;7.10;;;3.80;;
15198;SDS011;7700;48.654;9.070;2024-01-15T11:57:49;5.67;;;4.37;;
15198;SDS011;7700;48.654;9.070;2024-01-15T12:00:16;6.90;;;4.73;;
15198;SDS011;7700;48.654;9.070;2024-01-15T12:02:42;4.87;;;4.07;;
15198;SDS011;7700;48.654;9.070;2024-01-15T12:05:09;8.57;;;5.50;;
15198;SDS011;7700;48.654;9.070;2024-01-15T12:07:37;8.70;;;5.57;;
15198;SDS011;7700;48.654;9.070;2024-01-15T12:10:07;8.67;;;6.07;;
15198;SDS011;7700;48.654;9.070;2024-01-15T12:15:28;8.30;;;5.50;;
15198;SDS011;7700;48.654;9.070;2024-01-15T12:17:55;7.00;;;6.10;;
15198;SDS011;7700;48.654;9.070;2024-01-15T12:20:25;7.70;;;5.17;;
15198;SDS011;7700;48.654;9.070;2024-01-15T12:22:52;6.80;;;6.10;;
15198;SDS011;7700;48.654;9.070;2024-01-15T12:25:17;9.23;;;6.20;;
15198;SDS011;7700;48.654;9.070;2024-01-15T12:27:43;9.40;;;5.80;;
15198;SDS011;7700;48.654;9.070;2024-01-15T12:30:13;7.43;;;5.97;;
15198;SDS011;7700;48.654;9.070;2024-01-15T12:32:42;7.57;;;5.93;;
15198;SDS011;7700;48.654;9.070;2024-01-15T12:35:08;6.83;;;4.47;;
15198;SDS011;7700;48.654;9.070;2024-01-15T12:37:35;7.13;;;5.27;;
15198;SDS011;7700;48.654;9.070;2024-01-15T12:40:01;9.47;;;5.70;;
15198;SDS011;7700;48.654;9.070;2024-01-15T12:42:29;7.77;;;5.60;;
15198;SDS011;7700;48.654;9.070;2024-01-15T12:44:56;7.57;;;5.83;;
15198;SDS011;7700;48.654;9.070;2024-01-15T12:47:22;8.43;;;6.03;;
15198;SDS011;7700;48.654;9.070;2024-01-15T12:49:47;8.60;;;6.03;;
15198;SDS011;7700;48.654;9.070;2024-01-15T12:52:18;9.97;;;6.67;;
15198;SDS011;7700;48.654;9.070;2024-01-15T12:54:44;8.50;;;6.47;;
15198;SDS011;7700;48.654;9.070;2024-01-15T12:57:10;11.47;;;7.10;;
15198;SDS011;7700;48.654;9.070;2024-01-15T12:59:35;10.83;;;7.17;;
15198;SDS011;7700;48.654;9.070;2024-01-15T13:02:01;10.83;;;7.60;;
15198;SDS011;7700;48.654;9.070;2024-01-15T13:04:27;10.07;;;7.67;;
15198;SDS011;7700;48.654;9.070;2024-01-15T13:06:52;9.33;;;6.23;;
15198;SDS011;7700;48.654;9.070;2024-01-15T13:09:18;8.73;;;6.43;;
15198;SDS011;7700;48.654;9.070;2024-01-15T13:11:44;11.17;;;7.87;;
15198;SDS011;7700;48.654;9.070;2024-01-15T13:14:10;10.93;;;6.70;;
15198;SDS011;7700;48.654;9.070;2024-01-15T13:16:38;10.27;;;7.27;;
15198;SDS011;7700;48.654;9.070;2024-01-15T13:19:04;10.97;;;7.83;;
15198;SDS011;7700;48.654;9.070;2024-01-15T13:21:31;8.13;;;6.33;;
15198;SDS011;7700;48.654;9.070;2024-01-15T13:23:57;7.27;;;5.60;;
15198;SDS011;7700;48.654;9.070;2024-01-15T13:26:22;8.10;;;6.33;;
15198;SDS011;7700;48.654;9.070;2024-01-15T13:28:48;8.67;;;6.23;;
15198;SDS011;7700;48.654;9.070;2024-01-15T13:31:14;8.03;;;5.87;;
15198;SDS011;7700;48.654;9.070;2024-01-15T13:33:39;10.40;;;6.53;;
15198;SDS011;7700;48.654;9.070;2024-01-15T13:36:05;8.17;;;5.97;;
15198;SDS011;7700;48.654;9.070;2024-01-15T13:38:33;8.33;;;6.13;;
15198;SDS011;7700;48.654;9.070;2024-01-15T13:41:01;9.10;;;6.40;;
15198;SDS011;7700;48.654;9.070;2024-01-15T13:43:27;9.70;;;7.33;;
15198;SDS011;7700;48.654;9.070;2024-01-15T13:45:53;6.90;;;5.40;;
15198;SDS011;7700;48.654;9.070;2024-01-15T13:48:19;7.90;;;6.43;;
15198;SDS011;7700;48.654;9.070;2024-01-15T13:50:45;8.53;;;6.20;;
15198;SDS011;7700;48.654;9.070;2024-01-15T13:53:11;9.53;;;6.17;;
15198;SDS011;7700;48.654;9.070;2024-01-15T13:55:36;8.20;;;6.47;;
15198;SDS011;7700;48.654;9.070;2024-01-15T13:58:02;10.50;;;7.47;;
15198;SDS011;7700;48.654;9.070;2024-01-15T14:00:30;8.07;;;6.83;;
15198;SDS011;7700;48.654;9.070;2024-01-15T14:02:59;11.47;;;7.37;;
15198;SDS011;7700;48.654;9.070;2024-01-15T14:05:24;8.43;;;6.40;;
15198;SDS011;7700;48.654;9.070;2024-01-15T14:07:50;9.30;;;6.67;;
15198;SDS011;7700;48.654;9.070;2024-01-15T14:10:15;9.07;;;6.20;;
15198;SDS011;7700;48.654;9.070;2024-01-15T14:12:41;8.20;;;6.20;;
15198;SDS011;7700;48.654;9.070;2024-01-15T14:15:07;6.77;;;5.77;;
15198;SDS011;7700;48.654;9.070;2024-01-15T14:17:34;6.37;;;4.73;;
15198;SDS011;7700;48.654;9.070;2024-01-15T14:19:59;8.53;;;6.00;;
15198;SDS011;7700;48.654;9.070;2024-01-15T14:22:25;9.43;;;6.90;;
15198;SDS011;7700;48.654;9.070;2024-01-15T14:24:50;11.00;;;7.57;;
15198;SDS011;7700;48.654;9.070;2024-01-15T14:27:16;10.07;;;7.40;;
15198;SDS011;7700;48.654;9.070;2024-01-15T14:29:42;7.90;;;6.93;;
15198;SDS011;7700;48.654;9.070;2024-01-15T14:32:07;8.00;;;6.60;;
15198;SDS011;7700;48.654;9.070;2024-01-15T14:34:33;7.40;;;5.87;;
15198;SDS011;7700;48.654;9.070;2024-01-15T14:37:01;10.17;;;6.50;;
15198;SDS011;7700;48.654;9.070;2024-01-15T14:39:26;8.97;;;7.00;;
15198;SDS011;7700;48.654;9.070;2024-01-15T14:41:52;8.43;;;6.33;;
15198;SDS011;7700;48.654;9.070;2024-01-15T14:44:17;10.27;;;6.67;;
15198;SDS011;7700;48.654;9.070;2024-01-15T14:46:43;12.83;;;8.97;;
15198;SDS011;7700;48.654;9.070;2024-01-15T14:49:08;9.90;;;7.10;;
15198;SDS011;7700;48.654;9.070;2024-01-15T14:51:34;10.90;;;7.60;;
15198;SDS011;7700;48.654;9.070;2024-01-15T14:54:00;8.40;;;6.37;;
15198;SDS011;7700;48.654;9.070;2024-01-15T14:56:26;9.23;;;6.07;;
15198;SDS011;7700;48.654;9.070;2024-01-15T14:58:51;7.63;;;6.53;;
15198;SDS011;7700;48.654;9.070;2024-01-15T15:01:17;15.33;;;11.00;;